createdAt,value
2022-08-27T00:00:46.922Z,30.60
2022-08-27T00:03:14.567Z,32.93
2022-08-27T00:05:42.522Z,31.77
2022-08-27T00:08:13.012Z,31.73
2022-08-27T00:10:40.679Z,28.13
2022-08-27T00:13:07.481Z,35.22
2022-08-27T00:15:34.443Z,31.88
2022-08-27T00:18:01.316Z,26.08
2022-08-27T00:20:28.359Z,32.30
2022-08-27T00:22:55.797Z,24.67
2022-08-27T00:25:23.636Z,30.20
2022-08-27T00:27:50.959Z,26.98
2022-08-27T00:30:21.611Z,44.22
2022-08-27T00:32:48.920Z,37.17
2022-08-27T00:35:16.293Z,32.28
2022-08-27T00:37:44.158Z,26.80
2022-08-27T00:40:16.379Z,22.88
2022-08-27T00:42:45.817Z,26.10
2022-08-27T00:45:15.928Z,17.63
2022-08-27T00:47:50.648Z,18.02
2022-08-27T00:50:24.734Z,26.30
2022-08-27T00:52:59.499Z,28.90
2022-08-27T00:55:35.681Z,27.77
2022-08-27T00:58:12.943Z,16.08
2022-08-27T01:00:40.388Z,27.70
2022-08-27T01:03:07.446Z,23.13
2022-08-27T01:05:36.168Z,27.70
2022-08-27T01:08:09.663Z,25.55
2022-08-27T01:10:38.392Z,37.15
2022-08-27T01:13:09.036Z,29.60
2022-08-27T01:15:36.541Z,29.00
2022-08-27T01:18:06.535Z,17.85
2022-08-27T01:21:00.258Z,31.80
2022-08-27T01:23:50.910Z,20.73
2022-08-27T01:26:17.946Z,33.08
2022-08-27T01:28:45.810Z,19.02
2022-08-27T01:31:13.400Z,28.95
2022-08-27T01:33:41.048Z,28.83
2022-08-27T01:36:08.150Z,23.20
2022-08-27T01:38:35.385Z,29.40
2022-08-27T01:41:03.503Z,26.25
2022-08-27T01:43:31.301Z,36.10
2022-08-27T01:45:58.461Z,25.08
2022-08-27T01:48:25.283Z,39.07
2022-08-27T01:50:52.165Z,21.63
2022-08-27T01:53:22.613Z,34.00
2022-08-27T01:55:51.924Z,38.67
2022-08-27T01:58:22.314Z,29.37
2022-08-27T02:00:54.750Z,20.30
2022-08-27T02:03:24.206Z,17.83
2022-08-27T02:05:51.347Z,27.08
2022-08-27T02:08:19.344Z,18.00
2022-08-27T02:10:47.576Z,17.48
2022-08-27T02:13:15.235Z,20.83
2022-08-27T02:15:43.936Z,27.55
2022-08-27T02:18:12.045Z,27.55
2022-08-27T02:20:40.578Z,16.83
2022-08-27T02:23:08.806Z,16.10
2022-08-27T02:25:36.527Z,15.43
2022-08-27T02:28:05.318Z,23.77
2022-08-27T02:30:33.262Z,28.75
2022-08-27T02:33:02.526Z,25.73
2022-08-27T02:35:31.571Z,17.35
2022-08-27T02:37:58.531Z,14.23
2022-08-27T02:40:26.100Z,11.27
2022-08-27T02:42:53.193Z,15.82
2022-08-27T02:45:20.784Z,15.67
2022-08-27T02:47:48.454Z,15.98
2022-08-27T02:50:15.654Z,17.33
2022-08-27T02:52:45.331Z,15.32
2022-08-27T02:55:14.416Z,11.90
2022-08-27T02:57:45.069Z,17.90
2022-08-27T03:00:15.434Z,13.48
2022-08-27T03:02:42.322Z,13.80
2022-08-27T03:05:10.871Z,12.50
2022-08-27T03:07:37.818Z,14.70
2022-08-27T03:10:07.805Z,21.38
2022-08-27T03:12:36.303Z,16.17
2022-08-27T03:15:09.527Z,11.65
2022-08-27T03:17:55.489Z,13.13
2022-08-27T03:20:23.150Z,17.77
2022-08-27T03:22:49.989Z,26.77
2022-08-27T03:25:17.372Z,6.97
2022-08-27T03:27:45.307Z,9.05
2022-08-27T03:30:17.552Z,5.35
2022-08-27T03:32:44.699Z,8.07
2022-08-27T03:35:12.210Z,9.35
2022-08-27T03:37:39.814Z,12.38
2022-08-27T03:40:08.152Z,10.85
2022-08-27T03:42:36.466Z,15.95
2022-08-27T03:45:04.503Z,11.60
2022-08-27T03:47:32.250Z,9.30
2022-08-27T03:50:02.291Z,15.63
2022-08-27T03:52:29.544Z,9.35
2022-08-27T03:54:58.339Z,11.45
2022-08-27T03:57:25.703Z,9.80
2022-08-27T03:59:54.454Z,9.85
2022-08-27T04:02:21.611Z,12.00
2022-08-27T04:04:48.376Z,11.43
2022-08-27T04:07:15.098Z,12.40
2022-08-27T04:09:42.265Z,19.70
2022-08-27T04:12:09.311Z,19.70
2022-08-27T04:14:37.415Z,22.50
2022-08-27T04:17:04.339Z,29.27
2022-08-27T04:19:33.491Z,21.70
2022-08-27T04:22:05.793Z,29.23
2022-08-27T04:24:36.235Z,25.80
2022-08-27T04:27:04.505Z,16.33
2022-08-27T04:29:31.771Z,18.92
2022-08-27T04:31:59.375Z,20.55
2022-08-27T04:34:26.270Z,20.75
2022-08-27T04:36:56.643Z,34.22
2022-08-27T04:39:25.935Z,24.13
2022-08-27T04:41:56.076Z,22.80
2022-08-27T04:44:23.887Z,29.98
2022-08-27T04:46:56.041Z,23.75
2022-08-27T04:49:23.559Z,24.42
2022-08-27T04:51:50.480Z,29.85
2022-08-27T04:54:17.323Z,20.85
2022-08-27T04:56:47.180Z,20.92
2022-08-27T04:59:14.328Z,15.20
2022-08-27T05:01:44.893Z,21.80
2022-08-27T05:04:13.775Z,22.88
2022-08-27T05:06:41.098Z,14.63
2022-08-27T05:09:08.158Z,17.35
2022-08-27T05:11:35.237Z,11.50
2022-08-27T05:14:04.329Z,19.23
2022-08-27T05:16:32.021Z,16.83
2022-08-27T05:18:59.906Z,17.97
2022-08-27T05:21:30.978Z,16.73
2022-08-27T05:24:00.005Z,18.75
2022-08-27T05:26:27.959Z,21.98
2022-08-27T05:28:55.395Z,13.55
2022-08-27T05:31:22.953Z,18.50
2022-08-27T05:33:49.864Z,19.73
2022-08-27T05:36:35.570Z,22.48
2022-08-27T05:39:05.723Z,23.33
2022-08-27T05:41:34.477Z,19.07
2022-08-27T05:44:30.240Z,25.60
2022-08-27T05:46:56.592Z,22.13
2022-08-27T05:49:23.400Z,22.20
2022-08-27T05:51:50.748Z,20.80
2022-08-27T05:54:19.449Z,26.00
2022-08-27T05:56:47.463Z,19.85
2022-08-27T05:59:34.780Z,21.42
2022-08-27T06:02:02.814Z,26.33
2022-08-27T06:04:30.081Z,16.73
2022-08-27T06:06:57.159Z,16.60
2022-08-27T06:09:28.772Z,20.88
2022-08-27T06:12:00.205Z,22.42
2022-08-27T06:14:27.965Z,23.40
2022-08-27T06:16:55.998Z,24.55
2022-08-27T06:19:23.351Z,21.20
2022-08-27T06:22:00.307Z,24.60
2022-08-27T06:24:28.868Z,35.50
2022-08-27T06:26:57.368Z,20.93
2022-08-27T06:29:25.073Z,27.40
2022-08-27T06:31:52.913Z,26.40
2022-08-27T06:34:19.703Z,42.50
2022-08-27T06:36:47.244Z,40.63
2022-08-27T06:39:15.512Z,36.17
2022-08-27T06:41:44.731Z,37.58
2022-08-27T06:44:14.932Z,40.88
2022-08-27T06:46:43.033Z,44.67
2022-08-27T06:49:10.552Z,44.65
2022-08-27T06:51:39.305Z,45.05
2022-08-27T06:54:08.836Z,41.20
2022-08-27T06:56:36.327Z,40.25
2022-08-27T06:59:11.903Z,31.55
2022-08-27T07:01:42.477Z,34.17
2022-08-27T07:04:13.993Z,54.15
2022-08-27T07:06:41.176Z,39.72
2022-08-27T07:09:09.367Z,40.07
2022-08-27T07:11:36.761Z,29.95
2022-08-27T07:14:04.119Z,41.08
2022-08-27T07:16:31.115Z,48.67
2022-08-27T07:19:02.426Z,47.17
2022-08-27T07:21:32.297Z,60.77
2022-08-27T07:24:03.516Z,62.25
2022-08-27T07:26:32.934Z,51.20
2022-08-27T07:29:00.277Z,30.00
2022-08-27T07:31:27.906Z,32.10
2022-08-27T07:33:54.974Z,28.33
2022-08-27T07:36:22.853Z,35.72
2022-08-27T07:38:59.209Z,24.67
2022-08-27T07:41:31.333Z,22.13
2022-08-27T07:44:21.032Z,24.30
2022-08-27T07:46:54.462Z,44.85
2022-08-27T07:49:22.543Z,30.60
2022-08-27T07:51:50.052Z,21.23
2022-08-27T07:54:17.195Z,28.40
2022-08-27T07:56:44.342Z,26.10
2022-08-27T07:59:26.283Z,31.70
2022-08-27T08:01:54.429Z,34.78
2022-08-27T08:04:22.671Z,25.02
2022-08-27T08:06:50.804Z,26.50
2022-08-27T08:09:17.691Z,23.95
2022-08-27T08:11:44.837Z,26.35
2022-08-27T08:14:11.762Z,17.70
2022-08-27T08:16:38.597Z,33.50
2022-08-27T08:19:05.481Z,18.88
2022-08-27T08:21:33.411Z,23.83
2022-08-27T08:24:02.002Z,18.25
2022-08-27T08:26:29.230Z,21.77
2022-08-27T08:28:56.132Z,23.88
2022-08-27T08:31:23.983Z,24.85
2022-08-27T08:33:51.019Z,20.20
2022-08-27T08:36:18.056Z,23.08
2022-08-27T08:38:47.254Z,31.63
2022-08-27T08:41:35.949Z,21.73
2022-08-27T08:44:31.861Z,21.05
2022-08-27T08:47:00.927Z,22.30
2022-08-27T08:49:44.858Z,26.70
2022-08-27T08:52:43.221Z,24.05
2022-08-27T08:55:17.455Z,27.73
2022-08-27T08:58:11.721Z,32.78
2022-08-27T09:00:42.034Z,25.88
2022-08-27T09:03:12.725Z,18.63
2022-08-27T09:05:49.287Z,26.97
2022-08-27T09:08:36.452Z,21.17
2022-08-27T09:11:14.267Z,21.92
2022-08-27T09:13:47.596Z,32.55
2022-08-27T09:16:14.579Z,23.15
2022-08-27T09:18:41.998Z,32.92
2022-08-27T09:21:27.799Z,27.38
2022-08-27T09:23:57.338Z,32.50
2022-08-27T09:26:27.932Z,42.13
2022-08-27T09:29:15.860Z,24.20
2022-08-27T09:31:54.271Z,30.08
2022-08-27T09:34:22.374Z,26.58
2022-08-27T09:36:54.433Z,22.40
2022-08-27T09:39:48.430Z,39.40
2022-08-27T09:42:37.502Z,39.00
2022-08-27T09:45:11.888Z,32.25
2022-08-27T09:47:54.518Z,45.15
2022-08-27T09:50:34.918Z,33.63
2022-08-27T09:53:01.816Z,33.28
2022-08-27T09:55:46.662Z,37.30
2022-08-27T09:58:25.739Z,32.92
2022-08-27T10:01:15.707Z,44.30
2022-08-27T10:03:43.414Z,37.47
2022-08-27T10:06:11.123Z,46.97
2022-08-27T10:08:41.927Z,53.78
2022-08-27T10:11:18.399Z,70.93
2022-08-27T10:13:52.134Z,52.17
2022-08-27T10:16:40.747Z,50.60
2022-08-27T10:19:25.700Z,40.65
2022-08-27T10:22:00.733Z,54.25
2022-08-27T10:24:40.170Z,39.20
2022-08-27T10:27:09.766Z,51.28
2022-08-27T10:30:02.683Z,49.55
2022-08-27T10:33:06.210Z,43.03
2022-08-27T10:35:46.847Z,38.08
2022-08-27T10:38:45.108Z,40.27
2022-08-27T10:41:29.045Z,45.28
2022-08-27T10:44:19.188Z,55.80
2022-08-27T10:47:14.079Z,59.40
2022-08-27T10:49:54.963Z,42.50
2022-08-27T10:52:39.722Z,53.08
2022-08-27T10:55:26.713Z,59.28
2022-08-27T10:58:08.675Z,45.15
2022-08-27T11:01:03.143Z,39.95
2022-08-27T11:03:54.504Z,56.97
2022-08-27T11:06:32.766Z,46.45
2022-08-27T11:09:07.795Z,46.13
2022-08-27T11:12:13.938Z,52.47
2022-08-27T11:14:54.368Z,41.45
2022-08-27T11:17:36.737Z,42.53
2022-08-27T11:20:12.466Z,56.17
2022-08-27T11:22:47.795Z,24.25
2022-08-27T11:25:52.532Z,33.17
2022-08-27T11:28:29.551Z,28.50
2022-08-27T11:31:03.681Z,30.50
2022-08-27T11:33:48.266Z,46.05
2022-08-27T11:37:11.891Z,52.72
2022-08-27T11:39:57.633Z,49.00
2022-08-27T11:42:48.153Z,51.05
2022-08-27T11:46:12.976Z,49.63
2022-08-27T11:48:55.546Z,45.70
2022-08-27T11:51:34.198Z,66.30
2022-08-27T11:54:07.378Z,63.65
2022-08-27T11:56:37.258Z,57.75
2022-08-27T11:59:23.035Z,61.75
2022-08-27T12:01:55.190Z,54.33
2022-08-27T12:04:36.230Z,50.15
2022-08-27T12:07:16.767Z,68.13
2022-08-27T12:09:52.350Z,66.63
2022-08-27T12:12:33.274Z,46.80
2022-08-27T12:15:10.375Z,58.77
2022-08-27T12:18:08.626Z,64.53
2022-08-27T12:21:07.632Z,48.73
2022-08-27T12:23:46.868Z,54.03
2022-08-27T12:26:25.643Z,37.60
2022-08-27T12:29:16.391Z,33.88
2022-08-27T12:31:48.546Z,45.77
2022-08-27T12:34:19.663Z,34.03
2022-08-27T12:36:53.422Z,36.78
2022-08-27T12:39:27.634Z,40.03
2022-08-27T12:41:55.837Z,35.85
2022-08-27T12:44:28.566Z,37.13
2022-08-27T12:47:03.256Z,40.15
2022-08-27T12:49:42.030Z,45.67
2022-08-27T12:52:33.193Z,49.60
2022-08-27T12:55:18.745Z,46.80
2022-08-27T12:58:17.511Z,55.72
2022-08-27T13:01:21.086Z,50.97
2022-08-27T13:03:54.199Z,51.78
2022-08-27T13:06:27.497Z,56.03
2022-08-27T13:08:57.446Z,66.43
2022-08-27T13:11:33.485Z,57.47
2022-08-27T13:14:21.508Z,62.67
2022-08-27T13:16:54.562Z,56.88
2022-08-27T13:19:33.448Z,48.22
2022-08-27T13:22:01.445Z,52.97
2022-08-27T13:24:49.308Z,47.88
2022-08-27T13:27:16.247Z,62.80
2022-08-27T13:29:43.894Z,55.22
2022-08-27T13:32:14.106Z,56.17
2022-08-27T13:34:41.702Z,43.20
2022-08-27T13:37:24.616Z,56.90
2022-08-27T13:39:57.614Z,47.10
2022-08-27T13:42:26.063Z,49.57
2022-08-27T13:44:56.435Z,71.05
2022-08-27T13:47:28.049Z,66.70
2022-08-27T13:50:13.139Z,54.50
2022-08-27T13:53:01.664Z,45.83
2022-08-27T13:55:30.126Z,61.92
2022-08-27T13:58:00.773Z,57.33
2022-08-27T14:00:33.334Z,54.15
2022-08-27T14:03:02.124Z,39.97
2022-08-27T14:05:33.784Z,63.28
2022-08-27T14:08:12.335Z,41.88
2022-08-27T14:10:43.850Z,58.42
2022-08-27T14:13:20.878Z,56.97
2022-08-27T14:15:54.326Z,62.42
2022-08-27T14:18:47.983Z,60.15
2022-08-27T14:21:13.590Z,61.22
2022-08-27T14:23:41.102Z,46.03
2022-08-27T14:26:08.643Z,59.45
2022-08-27T14:28:35.524Z,59.97
2022-08-27T14:31:02.691Z,67.55
2022-08-27T14:33:29.899Z,63.70
2022-08-27T14:35:56.662Z,57.85
2022-08-27T14:38:26.771Z,68.68
2022-08-27T14:40:54.678Z,49.70
2022-08-27T14:43:22.933Z,69.57
2022-08-27T14:45:51.795Z,57.30
2022-08-27T14:48:21.834Z,50.90
2022-08-27T14:50:56.599Z,33.00
2022-08-27T14:53:24.298Z,33.03
2022-08-27T14:55:52.190Z,39.33
2022-08-27T14:58:19.548Z,32.40
2022-08-27T15:00:46.822Z,35.67
2022-08-27T15:03:13.758Z,31.00
2022-08-27T15:05:40.667Z,58.70
2022-08-27T15:08:13.362Z,61.90
2022-08-27T15:10:40.665Z,63.75
2022-08-27T15:13:09.437Z,58.13
2022-08-27T15:15:36.299Z,59.83
2022-08-27T15:18:03.367Z,46.40
2022-08-27T15:20:30.538Z,52.85
2022-08-27T15:22:58.829Z,48.92
2022-08-27T15:25:25.934Z,66.47
2022-08-27T15:27:52.758Z,61.53
2022-08-27T15:30:26.149Z,46.25
2022-08-27T15:32:53.491Z,45.35
2022-08-27T15:35:25.823Z,50.78
2022-08-27T15:37:54.982Z,61.53
2022-08-27T15:40:24.114Z,63.58
2022-08-27T15:42:57.159Z,68.30
2022-08-27T15:45:25.714Z,63.40
2022-08-27T15:47:55.451Z,63.58
2022-08-27T15:50:22.450Z,55.17
2022-08-27T15:52:53.435Z,47.40
2022-08-27T15:55:23.730Z,68.28
2022-08-27T15:57:50.744Z,66.10
2022-08-27T16:00:20.180Z,45.45
2022-08-27T16:02:47.633Z,66.18
2022-08-27T16:05:16.730Z,57.33
2022-08-27T16:07:44.486Z,68.30
2022-08-27T16:10:13.347Z,48.83
2022-08-27T16:12:40.388Z,55.05
2022-08-27T16:15:07.945Z,47.13
2022-08-27T16:17:35.831Z,47.67
2022-08-27T16:20:03.938Z,46.50
2022-08-27T16:22:30.862Z,59.88
2022-08-27T16:24:57.780Z,52.38
2022-08-27T16:27:24.621Z,60.72
2022-08-27T16:29:52.450Z,59.35
2022-08-27T16:32:19.527Z,58.63
2022-08-27T16:34:55.369Z,51.05
2022-08-27T16:37:24.420Z,52.55
2022-08-27T16:39:51.492Z,55.50
2022-08-27T16:42:18.315Z,46.70
2022-08-27T16:44:45.559Z,59.75
2022-08-27T16:47:12.822Z,57.20
2022-08-27T16:49:57.999Z,52.50
2022-08-27T16:52:24.967Z,58.28
2022-08-27T16:54:52.215Z,64.20
2022-08-27T16:57:19.106Z,47.22
2022-08-27T16:59:45.984Z,49.13
2022-08-27T17:02:34.954Z,61.87
2022-08-27T17:05:23.805Z,54.58
2022-08-27T17:07:50.036Z,58.80
2022-08-27T17:10:20.067Z,57.20
2022-08-27T17:12:47.872Z,49.78
2022-08-27T17:15:16.516Z,65.15
2022-08-27T17:17:43.396Z,45.83
2022-08-27T17:20:10.841Z,44.65
2022-08-27T17:22:38.035Z,43.20
2022-08-27T17:25:05.857Z,47.17
2022-08-27T17:27:32.633Z,51.65
2022-08-27T17:29:59.688Z,43.70
2022-08-27T17:32:27.560Z,43.03
2022-08-27T17:34:54.556Z,50.08
2022-08-27T17:37:22.517Z,47.40
2022-08-27T17:39:49.335Z,61.17
2022-08-27T17:42:16.438Z,45.43
2022-08-27T17:44:43.230Z,45.88
2022-08-27T17:47:10.227Z,50.30
2022-08-27T17:49:37.504Z,46.58
2022-08-27T17:52:09.636Z,64.22
2022-08-27T17:54:43.232Z,48.90
2022-08-27T17:57:20.659Z,48.25
2022-08-27T17:59:48.345Z,61.53
2022-08-27T18:02:39.000Z,44.17
2022-08-27T18:05:10.161Z,55.87
2022-08-27T18:07:39.945Z,53.95
2022-08-27T18:10:08.555Z,60.33
2022-08-27T18:12:35.973Z,54.88
2022-08-27T18:15:02.673Z,46.50
2022-08-27T18:17:30.314Z,69.40
2022-08-27T18:19:59.220Z,59.63
2022-08-27T18:22:26.960Z,60.28
2022-08-27T18:24:54.418Z,52.92
2022-08-27T18:27:25.424Z,54.60
2022-08-27T18:29:52.275Z,64.93
2022-08-27T18:32:24.402Z,47.67
2022-08-27T18:34:51.707Z,42.15
2022-08-27T18:37:18.638Z,61.67
2022-08-27T18:39:45.987Z,49.50
2022-08-27T18:42:14.610Z,54.00
2022-08-27T18:44:45.614Z,56.70
2022-08-27T18:47:13.120Z,50.78
2022-08-27T18:49:40.179Z,49.83
2022-08-27T18:52:08.803Z,47.92
2022-08-27T18:54:35.642Z,49.97
2022-08-27T18:57:02.446Z,48.10
2022-08-27T18:59:29.298Z,47.80
2022-08-27T19:01:56.633Z,47.05
2022-08-27T19:04:24.458Z,51.78
2022-08-27T19:06:51.521Z,46.53
2022-08-27T19:09:19.079Z,29.83
2022-08-27T19:11:46.002Z,45.47
2022-08-27T19:14:13.265Z,43.75
2022-08-27T19:16:50.595Z,37.22
2022-08-27T19:19:18.197Z,37.55
2022-08-27T19:21:50.718Z,43.25
2022-08-27T19:24:19.810Z,38.28
2022-08-27T19:26:47.067Z,41.08
2022-08-27T19:29:13.971Z,43.45
2022-08-27T19:31:41.854Z,41.13
2022-08-27T19:34:09.086Z,42.40
2022-08-27T19:36:40.688Z,44.47
2022-08-27T19:39:10.002Z,39.33
2022-08-27T19:41:36.987Z,42.38
2022-08-27T19:44:04.259Z,49.53
2022-08-27T19:46:32.750Z,69.68
2022-08-27T19:48:59.663Z,57.53
2022-08-27T19:51:26.584Z,70.32
2022-08-27T19:53:53.436Z,67.03
2022-08-27T19:56:20.907Z,64.70
2022-08-27T19:58:47.743Z,66.72
2022-08-27T20:01:14.763Z,68.53
2022-08-27T20:03:42.257Z,66.03
2022-08-27T20:06:09.092Z,56.30
2022-08-27T20:08:35.871Z,65.10
2022-08-27T20:11:02.747Z,60.50
2022-08-27T20:13:33.122Z,68.53
2022-08-27T20:16:02.341Z,55.72
2022-08-27T20:18:29.891Z,69.43
2022-08-27T20:20:56.715Z,57.10
2022-08-27T20:23:23.583Z,66.03
2022-08-27T20:25:57.830Z,71.68
2022-08-27T20:28:39.238Z,61.30
2022-08-27T20:31:08.209Z,66.25
2022-08-27T20:33:35.132Z,53.70
2022-08-27T20:36:02.625Z,79.00
2022-08-27T20:38:30.503Z,68.97
2022-08-27T20:40:57.557Z,75.20
2022-08-27T20:43:24.333Z,71.75
2022-08-27T20:45:51.237Z,53.78
2022-08-27T20:48:18.886Z,62.60
2022-08-27T20:50:45.664Z,75.72
2022-08-27T20:53:12.880Z,70.00
2022-08-27T20:55:40.326Z,64.88
2022-08-27T20:58:26.554Z,57.10
2022-08-27T21:00:55.383Z,88.28
2022-08-27T21:03:23.435Z,62.45
2022-08-27T21:05:50.255Z,73.32
2022-08-27T21:08:19.435Z,81.45
2022-08-27T21:10:49.707Z,73.00
2022-08-27T21:13:17.635Z,55.93
2022-08-27T21:15:44.439Z,70.97
2022-08-27T21:18:11.373Z,64.78
2022-08-27T21:20:38.661Z,76.40
2022-08-27T21:23:05.524Z,81.32
2022-08-27T21:25:32.335Z,90.18
2022-08-27T21:28:00.308Z,77.82
2022-08-27T21:30:27.558Z,79.20
2022-08-27T21:32:55.874Z,68.47
2022-08-27T21:35:27.274Z,82.18
2022-08-27T21:37:56.177Z,52.40
2022-08-27T21:40:25.058Z,61.00
2022-08-27T21:42:53.731Z,43.77
2022-08-27T21:45:21.226Z,51.80
2022-08-27T21:47:48.227Z,60.95
2022-08-27T21:50:15.111Z,60.75
2022-08-27T21:52:42.049Z,60.97
2022-08-27T21:55:10.174Z,60.42
2022-08-27T21:57:37.066Z,52.03
2022-08-27T22:00:16.782Z,61.40
2022-08-27T22:02:43.607Z,69.82
2022-08-27T22:05:10.460Z,69.22
2022-08-27T22:07:37.470Z,58.20
2022-08-27T22:10:05.763Z,56.80
2022-08-27T22:12:32.727Z,64.30
2022-08-27T22:14:59.610Z,52.38
2022-08-27T22:17:26.630Z,64.15
2022-08-27T22:19:54.467Z,63.90
2022-08-27T22:22:21.323Z,53.60
2022-08-27T22:24:48.385Z,63.80
2022-08-27T22:27:15.318Z,56.93
2022-08-27T22:29:42.071Z,64.18
2022-08-27T22:32:08.927Z,60.70
2022-08-27T22:34:36.310Z,58.45
2022-08-27T22:37:04.360Z,71.28
2022-08-27T22:39:31.383Z,63.50
2022-08-27T22:41:58.463Z,83.25
2022-08-27T22:44:29.162Z,76.10
2022-08-27T22:46:56.576Z,87.75
2022-08-27T22:49:23.564Z,78.57
2022-08-27T22:51:50.391Z,92.03
2022-08-27T22:54:17.987Z,83.75
2022-08-27T22:56:44.771Z,75.30
2022-08-27T22:59:11.664Z,71.68
2022-08-27T23:01:38.781Z,79.65
2022-08-27T23:04:06.620Z,76.40
2022-08-27T23:06:34.440Z,82.55
2022-08-27T23:09:01.888Z,74.55
2022-08-27T23:11:31.650Z,76.25
2022-08-27T23:13:59.538Z,77.78
2022-08-27T23:16:27.099Z,87.05
2022-08-27T23:18:54.113Z,100.18
2022-08-27T23:21:21.428Z,92.30
2022-08-27T23:23:48.295Z,89.07
2022-08-27T23:26:33.788Z,71.33
2022-08-27T23:29:00.671Z,71.43
2022-08-27T23:31:27.592Z,75.03
2022-08-27T23:33:55.992Z,77.72
2022-08-27T23:36:23.131Z,80.28
2022-08-27T23:38:49.994Z,74.20
2022-08-27T23:41:16.873Z,69.73
2022-08-27T23:43:44.901Z,82.88
2022-08-27T23:46:12.029Z,67.25
2022-08-27T23:48:39.351Z,96.00
2022-08-27T23:51:07.565Z,91.90
2022-08-27T23:53:37.206Z,74.95
2022-08-27T23:56:04.862Z,104.80
2022-08-27T23:58:32.611Z,79.30
